Time;durP1;ratioP1;P1;durP2;ratioP2;P2;SDS_P1;SDS_P2;PMS_P1;PMS_P2;Temp;Humidity;BMP_temperature;BMP_pressure;BME280_temperature;BME280_humidity;BME280_pressure;Samples;Min_cycle;Max_cycle;Signal;HPM_P1;HPM_P2
2021/04/13 00:00:48;;;;;;;;;;;;;;;;;;4949622;28;940;-58
2021/04/13 00:03:13;;;;;;;;;;;;;;;;;;4949216;28;958;-59
2021/04/13 00:05:46;;;;;;;;;;;;;;;;;;4957525;28;1907;-58
2021/04/13 00:08:17;;;;;;;;;;;;;;;;;;4980760;28;1097;-59
2021/04/13 00:11:02;;;;;;;;;;;;;;;;;;4987700;28;941;-59
2021/04/13 00:13:28;;;;;;;;;;;;;;;;;;4971014;28;1828;-59
2021/04/13 00:15:55;;;;;;;;;;;;;;;;;;4958437;28;796;-59
2021/04/13 00:18:27;;;;;;;;;;;;;;;;;;4967892;28;851;-59
2021/04/13 00:20:58;;;;;;;;;;;;;;;;;;4969201;28;906;-59
2021/04/13 00:23:24;;;;;;;;;;;;;;;;;;4968628;28;1902;-60
2021/04/13 00:25:55;;;;;;;;;;;;;;;;;;4969337;28;941;-60
2021/04/13 00:28:25;;;;;;;;;;;;;;;;;;4968009;28;814;-59
2021/04/13 00:30:52;;;;;;;;;;;;;;;;;;4969582;28;827;-59
2021/04/13 00:33:21;;;;;;;;;;;;;;;;;;4966309;28;1238;-59
2021/04/13 00:36:00;;;;;;;;;;;;;;;;;;4967513;28;911;-59
2021/04/13 00:38:25;;;;;;;;;;;;;;;;;;4967848;28;891;-59
2021/04/13 00:40:53;;;;;;;;;;;;;;;;;;4968878;28;898;-60
2021/04/13 00:43:19;;;;;;;;;;;;;;;;;;4968973;28;1898;-59
2021/04/13 00:45:46;;;;;;;;;;;;;;;;;;4968047;28;808;-60
2021/04/13 00:48:14;;;;;;;;;;;;;;;;;;4968178;28;804;-59
2021/04/13 00:50:42;;;;;;;;;;;;;;;;;;4968653;28;799;-59
2021/04/13 00:53:09;;;;;;;;;;;;;;;;;;4968352;28;827;-61
2021/04/13 00:55:42;;;;;;;;;;;;;;;;;;4968154;28;842;-59
2021/04/13 00:58:12;;;;;;;;;;;;;;;;;;4968270;28;811;-59
2021/04/13 01:00:41;;;;;;;;;;;;;;;;;;4966998;28;1209;-59
2021/04/13 01:03:07;;;;;;;;;;;;;;;;;;4960988;28;2109;-59
2021/04/13 01:05:40;;;;;;;;;;;;;;;;;;4948515;28;1894;-60
2021/04/13 01:08:17;;;;;;;;;;;;;;;;;;4973154;28;1035;-59
2021/04/13 01:10:42;;;;;;;;;;;;;;;;;;4987417;28;799;-59
2021/04/13 01:13:15;;;;;;;;;;;;;;;;;;4987110;28;882;-59
2021/04/13 01:15:42;;;;;;;;;;;;;;;;;;4987232;28;843;-59
2021/04/13 01:18:08;;;;;;;;;;;;;;;;;;5001739;28;1247;-59
2021/04/13 01:20:44;;;;;;;;;;;;;;;;;;4986828;28;807;-60
2021/04/13 01:23:24;;;;;;;;;;;;;;;;;;4985815;28;1216;-58
2021/04/13 01:25:55;;;;;;;;;;;;;;;;;;4987904;28;1064;-60
2021/04/13 01:28:23;;;;;;;;;;;;;;;;;;4987650;28;839;-60
2021/04/13 01:30:50;;;;;;;;;;;;;;;;;;4990792;28;812;-59
2021/04/13 01:33:25;;;;;;;;;;;;;;;;;;4960365;28;1219;-59
2021/04/13 01:35:52;;;;;;;;;;;;;;;;;;4952651;28;701;-60
2021/04/13 01:38:32;;;;;;;;;;;;;;;;;;4951820;28;804;-59
2021/04/13 01:41:08;;;;;;;;;;;;;;;;;;4969154;28;1146;-59
2021/04/13 01:43:36;;;;;;;;;;;;;;;;;;4971000;28;1894;-59
2021/04/13 01:46:03;;;;;;;;;;;;;;;;;;4970852;28;886;-60
2021/04/13 01:48:28;;;;;;;;;;;;;;;;;;4970789;28;804;-59
2021/04/13 01:50:56;;;;;;;;;;;;;;;;;;4971050;28;985;-60
2021/04/13 01:53:22;;;;;;;;;;;;;;;;;;4971791;28;899;-59
2021/04/13 01:55:54;;;;;;;;;;;;;;;;;;4970163;28;797;-60
2021/04/13 01:58:45;;;;;;;;;;;;;;;;;;4971867;28;796;-60
2021/04/13 02:01:22;;;;;;;;;;;;;;;;;;4954264;28;1374;-59
2021/04/13 02:03:56;;;;;;;;;;;;;;;;;;4969803;28;1968;-60
2021/04/13 02:06:22;;;;;;;;;;;;;;;;;;4971103;28;870;-60
2021/04/13 02:08:51;;;;;;;;;;;;;;;;;;4987721;28;1160;-58
2021/04/13 02:11:23;;;;;;;;;;;;;;;;;;4990251;28;874;-59
2021/04/13 02:13:51;;;;;;;;;;;;;;;;;;4990508;28;811;-59
2021/04/13 02:16:27;;;;;;;;;;;;;;;;;;4989885;28;902;-60
2021/04/13 02:18:53;;;;;;;;;;;;;;;;;;4990505;28;855;-60
2021/04/13 02:21:21;;;;;;;;;;;;;;;;;;4990539;28;811;-60
2021/04/13 02:23:49;;;;;;;;;;;;;;;;;;4989763;28;1894;-60
2021/04/13 02:26:15;;;;;;;;;;;;;;;;;;4989724;28;820;-61
2021/04/13 02:28:41;;;;;;;;;;;;;;;;;;4990047;28;883;-60
2021/04/13 02:31:08;;;;;;;;;;;;;;;;;;4985465;28;1345;-60
2021/04/13 02:33:38;;;;;;;;;;;;;;;;;;4951057;28;958;-60
2021/04/13 02:36:18;;;;;;;;;;;;;;;;;;4951025;28;836;-60
2021/04/13 02:38:48;;;;;;;;;;;;;;;;;;4951133;28;899;-60
2021/04/13 02:41:19;;;;;;;;;;;;;;;;;;4949509;28;832;-60
2021/04/13 02:43:47;;;;;;;;;;;;;;;;;;4950490;28;1894;-60
2021/04/13 02:46:28;;;;;;;;;;;;;;;;;;4951215;28;807;-60
2021/04/13 02:49:02;;;;;;;;;;;;;;;;;;4950560;28;871;-61
2021/04/13 02:51:28;;;;;;;;;;;;;;;;;;4950436;28;832;-60
2021/04/13 02:53:56;;;;;;;;;;;;;;;;;;4950758;28;808;-60
2021/04/13 02:56:26;;;;;;;;;;;;;;;;;;4951829;28;917;-58
2021/04/13 02:59:07;;;;;;;;;;;;;;;;;;4949960;28;943;-58
2021/04/13 03:01:34;;;;;;;;;;;;;;;;;;4957079;28;1440;-58
2021/04/13 03:04:09;;;;;;;;;;;;;;;;;;4969756;28;1974;-58
2021/04/13 03:06:39;;;;;;;;;;;;;;;;;;4969390;28;816;-58
2021/04/13 03:09:05;;;;;;;;;;;;;;;;;;4949874;28;832;-59
2021/04/13 03:11:32;;;;;;;;;;;;;;;;;;4949986;28;847;-58
2021/04/13 03:13:58;;;;;;;;;;;;;;;;;;4950001;28;820;-58
2021/04/13 03:16:50;;;;;;;;;;;;;;;;;;4950886;28;883;-59
2021/04/13 03:19:18;;;;;;;;;;;;;;;;;;4958160;28;1190;-58
2021/04/13 03:21:48;;;;;;;;;;;;;;;;;;4969927;28;899;-58
2021/04/13 03:24:16;;;;;;;;;;;;;;;;;;4969555;28;2009;-58
2021/04/13 03:26:44;;;;;;;;;;;;;;;;;;4968375;28;1605;-59
2021/04/13 03:29:17;;;;;;;;;;;;;;;;;;4969130;28;1035;-58
2021/04/13 03:31:43;;;;;;;;;;;;;;;;;;4967347;28;1374;-58
2021/04/13 03:34:12;;;;;;;;;;;;;;;;;;4969110;28;982;-58
2021/04/13 03:36:38;;;;;;;;;;;;;;;;;;4969357;28;828;-58
2021/04/13 03:39:06;;;;;;;;;;;;;;;;;;4960103;28;1243;-58
2021/04/13 03:41:32;;;;;;;;;;;;;;;;;;4949366;28;819;-57
2021/04/13 03:44:01;;;;;;;;;;;;;;;;;;4948027;28;1951;-57
2021/04/13 03:46:37;;;;;;;;;;;;;;;;;;4949705;29;891;-59
2021/04/13 03:49:06;;;;;;;;;;;;;;;;;;4948823;29;796;-59
2021/04/13 03:51:35;;;;;;;;;;;;;;;;;;4949479;29;935;-58
2021/04/13 03:54:16;;;;;;;;;;;;;;;;;;4949997;28;851;-57
2021/04/13 03:56:41;;;;;;;;;;;;;;;;;;4949497;29;1048;-58
2021/04/13 03:59:15;;;;;;;;;;;;;;;;;;4949773;29;907;-58
2021/04/13 04:01:42;;;;;;;;;;;;;;;;;;4949848;28;1220;-57
2021/04/13 04:04:09;;;;;;;;;;;;;;;;;;4949347;28;1876;-58
2021/04/13 04:06:52;;;;;;;;;;;;;;;;;;4949242;28;890;-58
2021/04/13 04:09:34;;;;;;;;;;;;;;;;;;4949243;28;891;-58
2021/04/13 04:12:01;;;;;;;;;;;;;;;;;;4949055;28;820;-58
2021/04/13 04:14:28;;;;;;;;;;;;;;;;;;4948596;28;902;-58
2021/04/13 04:17:06;;;;;;;;;;;;;;;;;;4948622;29;859;-60
2021/04/13 04:19:31;;;;;;;;;;;;;;;;;;4949508;28;903;-58
2021/04/13 04:21:59;;;;;;;;;;;;;;;;;;4948751;28;804;-58
2021/04/13 04:24:39;;;;;;;;;;;;;;;;;;4949039;28;1890;-60
2021/04/13 04:27:07;;;;;;;;;;;;;;;;;;4949366;28;808;-58
2021/04/13 04:29:35;;;;;;;;;;;;;;;;;;4949314;28;831;-58
2021/04/13 04:32:10;;;;;;;;;;;;;;;;;;4965113;28;1351;-59
2021/04/13 04:34:39;;;;;;;;;;;;;;;;;;4967999;28;946;-58
2021/04/13 04:37:13;;;;;;;;;;;;;;;;;;4967260;28;844;-58
2021/04/13 04:39:38;;;;;;;;;;;;;;;;;;4968214;28;902;-59
2021/04/13 04:42:28;;;;;;;;;;;;;;;;;;4967836;28;823;-58
2021/04/13 04:45:32;;;;;;;;;;;;;;;;;;4960189;28;1955;-60
2021/04/13 04:47:58;;;;;;;;;;;;;;;;;;4907084;29;1031;-60
2021/04/13 04:50:23;;;;;;;;;;;;;;;;;;4908517;29;832;-59
2021/04/13 04:52:49;;;;;;;;;;;;;;;;;;4936085;28;1006;-58
2021/04/13 04:55:15;;;;;;;;;;;;;;;;;;4967411;28;1046;-59
2021/04/13 04:57:40;;;;;;;;;;;;;;;;;;4968071;28;867;-59
2021/04/13 05:00:06;;;;;;;;;;;;;;;;;;4967517;28;1354;-58
2021/04/13 05:02:33;;;;;;;;;;;;;;;;;;4967079;28;1040;-60
2021/04/13 05:04:58;;;;;;;;;;;;;;;;;;4969880;28;1957;-58
2021/04/13 05:07:24;;;;;;;;;;;;;;;;;;4978066;28;1101;-59
2021/04/13 05:09:49;;;;;;;;;;;;;;;;;;4989808;28;1269;-60
2021/04/13 05:12:14;;;;;;;;;;;;;;;;;;4990611;28;827;-59
2021/04/13 05:14:40;;;;;;;;;;;;;;;;;;4990478;28;965;-60
2021/04/13 05:17:05;;;;;;;;;;;;;;;;;;4991808;28;866;-59
2021/04/13 05:19:31;;;;;;;;;;;;;;;;;;4991090;28;839;-59
2021/04/13 05:21:56;;;;;;;;;;;;;;;;;;4990195;28;879;-59
2021/04/13 05:24:21;;;;;;;;;;;;;;;;;;4991204;28;1906;-59
2021/04/13 05:26:47;;;;;;;;;;;;;;;;;;4987617;28;1056;-59
2021/04/13 05:29:12;;;;;;;;;;;;;;;;;;4990361;28;811;-59
2021/04/13 05:31:42;;;;;;;;;;;;;;;;;;4954364;28;1440;-60
2021/04/13 05:34:08;;;;;;;;;;;;;;;;;;4956646;28;1113;-58
2021/04/13 05:36:34;;;;;;;;;;;;;;;;;;4969993;28;895;-59
2021/04/13 05:39:00;;;;;;;;;;;;;;;;;;4971242;28;831;-61
2021/04/13 05:41:26;;;;;;;;;;;;;;;;;;4968429;28;1185;-58
2021/04/13 05:43:52;;;;;;;;;;;;;;;;;;4955317;28;1961;-60
2021/04/13 05:46:19;;;;;;;;;;;;;;;;;;4958385;28;1370;-60
2021/04/13 05:48:45;;;;;;;;;;;;;;;;;;4971051;28;815;-60
2021/04/13 05:51:10;;;;;;;;;;;;;;;;;;4970707;28;862;-59
2021/04/13 05:53:36;;;;;;;;;;;;;;;;;;4968465;28;1185;-59
2021/04/13 05:56:01;;;;;;;;;;;;;;;;;;4970637;28;875;-60
2021/04/13 05:58:34;;;;;;;;;;;;;;;;;;4952019;28;1433;-59
2021/04/13 06:01:01;;;;;;;;;;;;;;;;;;4952024;28;831;-58
2021/04/13 06:03:27;;;;;;;;;;;;;;;;;;4951368;28;958;-58
2021/04/13 06:05:55;;;;;;;;;;;;;;;;;;4957849;28;1907;-59
2021/04/13 06:08:20;;;;;;;;;;;;;;;;;;4985018;28;1132;-59
2021/04/13 06:10:46;;;;;;;;;;;;;;;;;;4990102;28;879;-59
2021/04/13 06:13:12;;;;;;;;;;;;;;;;;;4989613;28;803;-58
2021/04/13 06:15:38;;;;;;;;;;;;;;;;;;4988638;28;890;-59
2021/04/13 06:18:03;;;;;;;;;;;;;;;;;;4986649;28;1231;-59
2021/04/13 06:20:29;;;;;;;;;;;;;;;;;;4987912;28;1302;-58
2021/04/13 06:22:55;;;;;;;;;;;;;;;;;;4987079;28;1167;-60
2021/04/13 06:25:22;;;;;;;;;;;;;;;;;;4990437;28;1965;-58
2021/04/13 06:27:48;;;;;;;;;;;;;;;;;;4981075;28;1266;-59
2021/04/13 06:30:14;;;;;;;;;;;;;;;;;;4970433;28;898;-59
2021/04/13 06:32:39;;;;;;;;;;;;;;;;;;4969366;28;1295;-59
2021/04/13 06:35:05;;;;;;;;;;;;;;;;;;4970285;28;827;-59
2021/04/13 06:37:32;;;;;;;;;;;;;;;;;;4970407;28;926;-58
2021/04/13 06:39:57;;;;;;;;;;;;;;;;;;4965203;28;1224;-58
2021/04/13 06:42:29;;;;;;;;;;;;;;;;;;4992100;28;1192;-59
2021/04/13 06:45:04;;;;;;;;;;;;;;;;;;4969361;28;1910;-60
2021/04/13 06:47:38;;;;;;;;;;;;;;;;;;4970142;28;867;-58
2021/04/13 06:50:22;;;;;;;;;;;;;;;;;;4969697;28;796;-59
2021/04/13 06:53:16;;;;;;;;;;;;;;;;;;4970332;28;917;-59
2021/04/13 06:55:48;;;;;;;;;;;;;;;;;;4968787;28;1371;-59
2021/04/13 06:58:42;;;;;;;;;;;;;;;;;;4969777;28;899;-59
2021/04/13 07:01:07;;;;;;;;;;;;;;;;;;4968393;28;852;-59
2021/04/13 07:03:40;;;;;;;;;;;;;;;;;;4969585;28;1983;-59
2021/04/13 07:06:19;;;;;;;;;;;;;;;;;;4955296;28;1209;-59
2021/04/13 07:08:48;;;;;;;;;;;;;;;;;;4984293;28;1178;-65
2021/04/13 07:11:35;;;;;;;;;;;;;;;;;;4989419;28;811;-64
2021/04/13 07:14:07;;;;;;;;;;;;;;;;;;4989168;28;835;-64
2021/04/13 07:16:36;;;;;;;;;;;;;;;;;;4951072;28;1585;-64
2021/04/13 07:19:14;;;;;;;;;;;;;;;;;;4948470;29;939;-63
2021/04/13 07:21:43;;;;;;;;;;;;;;;;;;4950519;28;824;-63
2021/04/13 07:24:18;;;;;;;;;;;;;;;;;;4950396;29;1965;-64
2021/04/13 07:26:46;;;;;;;;;;;;;;;;;;4964186;28;1064;-63
2021/04/13 07:29:19;;;;;;;;;;;;;;;;;;4950036;28;819;-63
2021/04/13 07:31:47;;;;;;;;;;;;;;;;;;4950157;28;852;-63
2021/04/13 07:34:13;;;;;;;;;;;;;;;;;;4950393;28;847;-65
2021/04/13 07:36:50;;;;;;;;;;;;;;;;;;4949520;28;903;-63
2021/04/13 07:39:15;;;;;;;;;;;;;;;;;;4949425;28;824;-65
2021/04/13 07:41:44;;;;;;;;;;;;;;;;;;4950274;28;942;-63
2021/04/13 07:44:13;;;;;;;;;;;;;;;;;;4949964;28;1963;-62
2021/04/13 07:47:11;;;;;;;;;;;;;;;;;;4967966;28;1476;-62
2021/04/13 07:49:39;;;;;;;;;;;;;;;;;;4946111;28;1475;-63
2021/04/13 07:52:04;;;;;;;;;;;;;;;;;;4968714;28;871;-63
2021/04/13 07:54:48;;;;;;;;;;;;;;;;;;4967910;28;909;-63
2021/04/13 07:57:33;;;;;;;;;;;;;;;;;;4967552;28;1188;-63
2021/04/13 08:00:01;;;;;;;;;;;;;;;;;;4968648;28;871;-63
2021/04/13 08:02:27;;;;;;;;;;;;;;;;;;4967713;28;1678;-64
2021/04/13 08:04:56;;;;;;;;;;;;;;;;;;4963510;28;1923;-64
2021/04/13 08:07:24;;;;;;;;;;;;;;;;;;4972347;28;1653;-64
2021/04/13 08:10:08;;;;;;;;;;;;;;;;;;4968109;28;1777;-62
2021/04/13 08:12:35;;;;;;;;;;;;;;;;;;4968299;28;1622;-62
2021/04/13 08:15:03;;;;;;;;;;;;;;;;;;4967359;28;1471;-63
2021/04/13 08:17:29;;;;;;;;;;;;;;;;;;4956772;28;1690;-63
2021/04/13 08:20:01;;;;;;;;;;;;;;;;;;4949537;28;863;-63
2021/04/13 08:22:26;;;;;;;;;;;;;;;;;;4949529;28;862;-62
2021/04/13 08:24:54;;;;;;;;;;;;;;;;;;4952734;28;1994;-63
2021/04/13 08:27:28;;;;;;;;;;;;;;;;;;4968495;28;835;-62
2021/04/13 08:30:05;;;;;;;;;;;;;;;;;;4967783;28;1130;-62
2021/04/13 08:32:55;;;;;;;;;;;;;;;;;;4967456;28;1543;-63
2021/04/13 08:35:27;;;;;;;;;;;;;;;;;;4968431;28;1070;-62
2021/04/13 08:38:04;;;;;;;;;;;;;;;;;;4967448;28;1189;-63
2021/04/13 08:40:29;;;;;;;;;;;;;;;;;;4967719;28;1154;-65
2021/04/13 08:43:08;;;;;;;;;;;;;;;;;;4968381;28;1535;-63
2021/04/13 08:45:36;;;;;;;;;;;;;;;;;;4966936;28;1898;-63
2021/04/13 08:48:19;;;;;;;;;;;;;;;;;;4967829;28;820;-64
2021/04/13 08:50:48;;;;;;;;;;;;;;;;;;4967567;28;1019;-64
2021/04/13 08:53:31;;;;;;;;;;;;;;;;;;4968378;28;783;-65
2021/04/13 08:56:05;;;;;;;;;;;;;;;;;;4966719;28;877;-68
2021/04/13 08:58:44;;;;;;;;;;;;;;;;;;4966678;28;1153;-68
2021/04/13 09:01:21;;;;;;;;;;;;;;;;;;4967562;28;879;-68
2021/04/13 09:03:47;;;;;;;;;;;;;;;;;;4967640;28;1898;-66
2021/04/13 09:06:14;;;;;;;;;;;;;;;;;;4967723;28;792;-70
2021/04/13 09:09:14;;;;;;;;;;;;;;;;;;4967763;28;1074;-67
2021/04/13 09:11:55;;;;;;;;;;;;;;;;;;4926432;29;1430;-67
2021/04/13 09:14:23;;;;;;;;;;;;;;;;;;4960263;28;1288;-68
2021/04/13 09:17:02;;;;;;;;;;;;;;;;;;4967211;28;1638;-68
2021/04/13 09:19:54;;;;;;;;;;;;;;;;;;4966705;28;824;-66
2021/04/13 09:22:28;;;;;;;;;;;;;;;;;;4984144;28;1198;-65
2021/04/13 09:25:07;;;;;;;;;;;;;;;;;;4987819;28;1989;-69
2021/04/13 09:27:46;;;;;;;;;;;;;;;;;;5002046;28;1257;-67
2021/04/13 09:30:17;;;;;;;;;;;;;;;;;;4987589;28;894;-68
2021/04/13 09:32:43;;;;;;;;;;;;;;;;;;4986777;28;866;-69
2021/04/13 09:35:08;;;;;;;;;;;;;;;;;;5001730;28;1299;-68
2021/04/13 09:37:52;;;;;;;;;;;;;;;;;;4987377;28;807;-64
2021/04/13 09:40:36;;;;;;;;;;;;;;;;;;4986915;28;900;-68
2021/04/13 09:43:05;;;;;;;;;;;;;;;;;;4984720;28;1444;-67
2021/04/13 09:45:33;;;;;;;;;;;;;;;;;;4967273;28;1983;-66
2021/04/13 09:47:58;;;;;;;;;;;;;;;;;;4967149;28;843;-68
2021/04/13 09:50:34;;;;;;;;;;;;;;;;;;4969004;28;874;-65
2021/04/13 09:53:11;;;;;;;;;;;;;;;;;;4969376;28;1428;-71
2021/04/13 09:56:00;;;;;;;;;;;;;;;;;;4964224;28;929;-67
2021/04/13 09:58:42;;;;;;;;;;;;;;;;;;4953350;28;890;-72
2021/04/13 10:01:13;;;;;;;;;;;;;;;;;;4971134;28;839;-70
2021/04/13 10:03:47;;;;;;;;;;;;;;;;;;4970623;28;1248;-67
2021/04/13 10:06:14;;;;;;;;;;;;;;;;;;4969789;28;1165;-71
2021/04/13 10:08:43;;;;;;;;;;;;;;;;;;4985344;28;1350;-72
2021/04/13 10:11:12;;;;;;;;;;;;;;;;;;4989646;28;831;-70
2021/04/13 10:13:43;;;;;;;;;;;;;;;;;;4964962;28;1740;-71
2021/04/13 10:16:27;;;;;;;;;;;;;;;;;;4968734;28;1471;-67
2021/04/13 10:19:07;;;;;;;;;;;;;;;;;;4970926;28;898;-68
2021/04/13 10:21:51;;;;;;;;;;;;;;;;;;4970479;28;910;-67
2021/04/13 10:24:26;;;;;;;;;;;;;;;;;;4967640;28;1918;-72
2021/04/13 10:27:01;;;;;;;;;;;;;;;;;;4968941;28;1538;-68
2021/04/13 10:29:45;;;;;;;;;;;;;;;;;;4979783;28;1521;-70
2021/04/13 10:32:28;;;;;;;;;;;;;;;;;;4969999;28;815;-74
2021/04/13 10:35:12;;;;;;;;;;;;;;;;;;4969176;28;1519;-73
2021/04/13 10:37:40;;;;;;;;;;;;;;;;;;4970449;28;856;-69
2021/04/13 10:40:13;;;;;;;;;;;;;;;;;;4957983;28;1434;-67
2021/04/13 10:42:57;;;;;;;;;;;;;;;;;;4958009;28;1526;-69
2021/04/13 10:45:31;;;;;;;;;;;;;;;;;;4966544;28;1898;-71
2021/04/13 10:48:16;;;;;;;;;;;;;;;;;;4968156;28;1717;-70
2021/04/13 10:50:53;;;;;;;;;;;;;;;;;;4968880;28;1377;-69
2021/04/13 10:53:37;;;;;;;;;;;;;;;;;;4962379;28;1430;-67
2021/04/13 10:56:07;;;;;;;;;;;;;;;;;;4969361;28;1686;-69
2021/04/13 10:58:51;;;;;;;;;;;;;;;;;;4969541;28;882;-67
2021/04/13 11:01:35;;;;;;;;;;;;;;;;;;4970479;28;835;-65
2021/04/13 11:04:19;;;;;;;;;;;;;;;;;;4967730;28;1975;-67
2021/04/13 11:07:08;;;;;;;;;;;;;;;;;;4969284;28;1220;-68
2021/04/13 11:09:40;;;;;;;;;;;;;;;;;;4951400;28;1161;-66
2021/04/13 11:12:05;;;;;;;;;;;;;;;;;;4969801;28;796;-64
2021/04/13 11:14:36;;;;;;;;;;;;;;;;;;4968091;28;1269;-66
2021/04/13 11:17:20;;;;;;;;;;;;;;;;;;4969610;28;866;-64
2021/04/13 11:20:04;;;;;;;;;;;;;;;;;;4967961;28;1264;-67
2021/04/13 11:22:48;;;;;;;;;;;;;;;;;;4971413;28;1140;-70
2021/04/13 11:25:32;;;;;;;;;;;;;;;;;;4948392;29;1890;-67
2021/04/13 11:27:58;;;;;;;;;;;;;;;;;;4949936;28;808;-66
2021/04/13 11:30:50;;;;;;;;;;;;;;;;;;4950860;28;1403;-65
2021/04/13 11:33:21;;;;;;;;;;;;;;;;;;4949988;28;962;-65
2021/04/13 11:35:53;;;;;;;;;;;;;;;;;;4949413;28;820;-63
2021/04/13 11:38:18;;;;;;;;;;;;;;;;;;4948733;28;796;-64
2021/04/13 11:41:04;;;;;;;;;;;;;;;;;;4951375;28;1224;-63
2021/04/13 11:43:32;;;;;;;;;;;;;;;;;;4966251;28;1257;-65
2021/04/13 11:46:00;;;;;;;;;;;;;;;;;;4959680;28;1886;-68
2021/04/13 11:48:44;;;;;;;;;;;;;;;;;;4957770;28;1327;-66
2021/04/13 11:51:22;;;;;;;;;;;;;;;;;;4955740;28;1928;-65
2021/04/13 11:53:49;;;;;;;;;;;;;;;;;;4965930;28;1223;-71
2021/04/13 11:56:24;;;;;;;;;;;;;;;;;;4967204;28;1247;-63
2021/04/13 11:59:08;;;;;;;;;;;;;;;;;;4967598;28;1215;-66
2021/04/13 12:01:35;;;;;;;;;;;;;;;;;;4967829;28;1223;-61
2021/04/13 12:04:06;;;;;;;;;;;;;;;;;;4959598;28;1978;-61
2021/04/13 12:06:46;;;;;;;;;;;;;;;;;;4957493;28;1220;-72
2021/04/13 12:09:32;;;;;;;;;;;;;;;;;;4967644;28;1157;-72
2021/04/13 12:11:58;;;;;;;;;;;;;;;;;;4967288;28;1244;-72
2021/04/13 12:14:35;;;;;;;;;;;;;;;;;;4967051;28;1290;-71
2021/04/13 12:17:02;;;;;;;;;;;;;;;;;;4965857;28;1416;-66
2021/04/13 12:19:28;;;;;;;;;;;;;;;;;;4966080;28;1325;-68
2021/04/13 12:22:13;;;;;;;;;;;;;;;;;;4967705;28;1258;-68
2021/04/13 12:24:39;;;;;;;;;;;;;;;;;;4967513;28;1886;-70
2021/04/13 12:27:43;;;;;;;;;;;;;;;;;;4967078;28;1150;-66
2021/04/13 12:30:29;;;;;;;;;;;;;;;;;;4925641;29;1292;-67
2021/04/13 12:32:55;;;;;;;;;;;;;;;;;;4926288;29;2026;-68
2021/04/13 12:35:38;;;;;;;;;;;;;;;;;;4949447;28;1553;-73
2021/04/13 12:38:24;;;;;;;;;;;;;;;;;;4963790;28;1701;-71
2021/04/13 12:41:05;;;;;;;;;;;;;;;;;;4960346;28;1184;-77
2021/04/13 12:43:33;;;;;;;;;;;;;;;;;;4956714;28;1493;-68
2021/04/13 12:46:00;;;;;;;;;;;;;;;;;;4957858;28;1963;-72
2021/04/13 12:48:35;;;;;;;;;;;;;;;;;;4959103;28;1213;-70
2021/04/13 12:51:00;;;;;;;;;;;;;;;;;;4960373;28;1228;-65
2021/04/13 12:53:29;;;;;;;;;;;;;;;;;;4961352;28;1126;-71
2021/04/13 12:56:06;;;;;;;;;;;;;;;;;;4964403;28;1235;-73
2021/04/13 12:58:36;;;;;;;;;;;;;;;;;;4956379;28;1302;-70
2021/04/13 13:01:01;;;;;;;;;;;;;;;;;;4959978;28;1173;-63
2021/04/13 13:03:32;;;;;;;;;;;;;;;;;;4958896;28;1165;-66
2021/04/13 13:05:57;;;;;;;;;;;;;;;;;;4958035;28;1910;-67
2021/04/13 13:08:28;;;;;;;;;;;;;;;;;;4957808;28;1288;-70
2021/04/13 13:10:56;;;;;;;;;;;;;;;;;;4961408;28;1318;-68
2021/04/13 13:13:33;;;;;;;;;;;;;;;;;;4952118;28;1221;-69
2021/04/13 13:16:09;;;;;;;;;;;;;;;;;;4959149;28;1083;-66
2021/04/13 13:18:44;;;;;;;;;;;;;;;;;;4961902;28;2014;-68
2021/04/13 13:21:11;;;;;;;;;;;;;;;;;;4960795;28;1500;-68
2021/04/13 13:23:47;;;;;;;;;;;;;;;;;;4959335;28;1458;-65
2021/04/13 13:26:13;;;;;;;;;;;;;;;;;;4959804;28;1899;-63
2021/04/13 13:28:45;;;;;;;;;;;;;;;;;;4964156;28;1467;-70
2021/04/13 13:31:29;;;;;;;;;;;;;;;;;;4966119;28;1252;-64
2021/04/13 13:34:00;;;;;;;;;;;;;;;;;;4966574;28;1514;-71
2021/04/13 13:36:28;;;;;;;;;;;;;;;;;;4967393;28;1388;-71
2021/04/13 13:38:54;;;;;;;;;;;;;;;;;;4962598;28;1368;-66
2021/04/13 13:41:20;;;;;;;;;;;;;;;;;;4967480;28;1177;-68
2021/04/13 13:43:46;;;;;;;;;;;;;;;;;;4964454;28;1309;-70
2021/04/13 13:46:20;;;;;;;;;;;;;;;;;;4966115;28;1886;-66
2021/04/13 13:48:46;;;;;;;;;;;;;;;;;;4966441;28;1181;-65
2021/04/13 13:51:33;;;;;;;;;;;;;;;;;;4968898;28;1272;-67
2021/04/13 13:54:12;;;;;;;;;;;;;;;;;;4980726;28;1394;-67
2021/04/13 13:56:38;;;;;;;;;;;;;;;;;;4969113;28;1294;-65
2021/04/13 13:59:19;;;;;;;;;;;;;;;;;;4967969;28;1259;-67
2021/04/13 14:01:52;;;;;;;;;;;;;;;;;;4966998;28;1296;-65
2021/04/13 14:04:25;;;;;;;;;;;;;;;;;;4966241;28;1985;-67
2021/04/13 14:06:50;;;;;;;;;;;;;;;;;;4969939;28;1287;-64
2021/04/13 14:09:17;;;;;;;;;;;;;;;;;;4968332;28;1488;-66
2021/04/13 14:11:43;;;;;;;;;;;;;;;;;;4967120;28;1249;-69
2021/04/13 14:14:10;;;;;;;;;;;;;;;;;;4964369;28;1499;-65
2021/04/13 14:16:42;;;;;;;;;;;;;;;;;;4966245;28;1435;-68
2021/04/13 14:19:19;;;;;;;;;;;;;;;;;;4971187;28;863;-64
2021/04/13 14:21:45;;;;;;;;;;;;;;;;;;4967356;28;1355;-65
2021/04/13 14:24:17;;;;;;;;;;;;;;;;;;4968749;28;1965;-64
2021/04/13 14:26:46;;;;;;;;;;;;;;;;;;4968730;28;1506;-66
2021/04/13 14:29:22;;;;;;;;;;;;;;;;;;4970199;28;1220;-65
2021/04/13 16:06:07;;;;;;;;;;;;;;;;;;6145436;22;1007550;-71
2021/04/13 16:08:32;;;;;;;;;;;;;;;;;;6183963;23;844;-72
2021/04/13 16:10:57;;;;;;;;;;;;;;;;;;6183385;23;908;-70
2021/04/13 16:13:24;;;;;;;;;;;;;;;;;;6183913;23;1901;-72
2021/04/13 16:15:49;;;;;;;;;;;;;;;;;;6182964;23;1266;-71
2021/04/13 16:18:15;;;;;;;;;;;;;;;;;;6183480;23;1179;-73
2021/04/13 16:20:40;;;;;;;;;;;;;;;;;;6184478;23;932;-72
2021/04/13 16:23:07;;;;;;;;;;;;;;;;;;6182152;23;1175;-69
2021/04/13 16:25:33;;;;;;;;;;;;;;;;;;6184193;23;794;-71
2021/04/13 16:27:59;;;;;;;;;;;;;;;;;;6182742;23;1330;-71
2021/04/13 16:30:25;;;;;;;;;;;;;;;;;;6182968;23;1311;-71
2021/04/13 16:32:52;;;;;;;;;;;;;;;;;;6184065;23;801;-72
2021/04/13 16:35:19;;;;;;;;;;;;;;;;;;6183608;23;1913;-71
2021/04/13 16:37:47;;;;;;;;;;;;;;;;;;6184795;23;794;-72
2021/04/13 16:40:15;;;;;;;;;;;;;;;;;;6184342;23;861;-69
2021/04/13 16:42:49;;;;;;;;;;;;;;;;;;6183610;23;777;-71
2021/04/13 16:45:24;;;;;;;;;;;;;;;;;;6184858;23;790;-68
2021/04/13 16:48:10;;;;;;;;;;;;;;;;;;6178651;23;1229;-69
2021/04/13 16:50:37;;;;;;;;;;;;;;;;;;6183727;23;849;-70
2021/04/13 16:53:08;;;;;;;;;;;;;;;;;;6183396;23;857;-71
2021/04/13 16:55:34;;;;;;;;;;;;;;;;;;6183181;23;1868;-69
2021/04/13 16:58:00;;;;;;;;;;;;;;;;;;6183646;23;845;-72
2021/04/13 17:00:26;;;;;;;;;;;;;;;;;;6183622;23;794;-71
2021/04/13 17:02:51;;;;;;;;;;;;;;;;;;6183822;23;864;-71
2021/04/13 17:05:34;;;;;;;;;;;;;;;;;;6200154;23;928;-71
2021/04/13 17:08:03;;;;;;;;;;;;;;;;;;6206534;23;805;-71
2021/04/13 17:10:35;;;;;;;;;;;;;;;;;;6208029;23;818;-72
2021/04/13 17:13:05;;;;;;;;;;;;;;;;;;6206983;23;837;-71
2021/04/13 17:15:35;;;;;;;;;;;;;;;;;;6180050;23;1915;-70
2021/04/13 17:18:01;;;;;;;;;;;;;;;;;;6207282;23;829;-71
2021/04/13 17:20:30;;;;;;;;;;;;;;;;;;6210624;23;845;-69
2021/04/13 17:22:57;;;;;;;;;;;;;;;;;;6209530;23;794;-70
2021/04/13 17:25:26;;;;;;;;;;;;;;;;;;6206947;23;636;-70
2021/04/13 17:27:53;;;;;;;;;;;;;;;;;;6207298;23;770;-69
2021/04/13 17:30:33;;;;;;;;;;;;;;;;;;6206803;23;790;-70
2021/04/13 17:33:00;;;;;;;;;;;;;;;;;;6207428;23;822;-70
2021/04/13 17:35:26;;;;;;;;;;;;;;;;;;6204904;23;1857;-69
2021/04/13 17:37:51;;;;;;;;;;;;;;;;;;6206194;23;841;-70
2021/04/13 17:40:19;;;;;;;;;;;;;;;;;;6206339;23;813;-70
2021/04/13 17:42:50;;;;;;;;;;;;;;;;;;6207799;23;825;-70
2021/04/13 17:45:18;;;;;;;;;;;;;;;;;;6206648;23;774;-68
2021/04/13 17:47:45;;;;;;;;;;;;;;;;;;6207510;23;809;-68
2021/04/13 17:50:24;;;;;;;;;;;;;;;;;;6108796;23;11863;-68
2021/04/13 17:52:50;;;;;;;;;;;;;;;;;;6133608;23;10786;-68
2021/04/13 17:55:21;;;;;;;;;;;;;;;;;;6146622;23;1889;-72
2021/04/13 17:57:48;;;;;;;;;;;;;;;;;;6146739;23;837;-71
2021/04/13 18:00:15;;;;;;;;;;;;;;;;;;6147952;23;814;-66
2021/04/13 18:02:47;;;;;;;;;;;;;;;;;;6146531;23;647;-66
2021/04/13 18:05:15;;;;;;;;;;;;;;;;;;6147750;23;1067;-68
2021/04/13 18:08:01;;;;;;;;;;;;;;;;;;6146398;23;1041;-69
2021/04/13 18:10:30;;;;;;;;;;;;;;;;;;6143967;23;1032;-70
2021/04/13 18:12:56;;;;;;;;;;;;;;;;;;6119932;23;1263;-67
2021/04/13 18:15:28;;;;;;;;;;;;;;;;;;6119573;23;1936;-68
2021/04/13 18:18:11;;;;;;;;;;;;;;;;;;6131289;23;1144;-69
2021/04/13 18:20:41;;;;;;;;;;;;;;;;;;6156538;23;798;-68
2021/04/13 18:23:08;;;;;;;;;;;;;;;;;;6131026;23;1128;-68
2021/04/13 18:25:44;;;;;;;;;;;;;;;;;;6155584;23;833;-66
2021/04/13 18:28:13;;;;;;;;;;;;;;;;;;6132126;23;1152;-63
2021/04/13 18:30:38;;;;;;;;;;;;;;;;;;6156200;23;948;-68
2021/04/13 18:33:07;;;;;;;;;;;;;;;;;;6132751;23;1180;-70
2021/04/13 18:35:47;;;;;;;;;;;;;;;;;;6158431;23;1909;-67
2021/04/13 18:38:39;;;;;;;;;;;;;;;;;;6159237;23;814;-68
2021/04/13 18:41:09;;;;;;;;;;;;;;;;;;6134233;23;1336;-65
2021/04/13 18:43:43;;;;;;;;;;;;;;;;;;6158101;23;917;-67
2021/04/13 18:46:29;;;;;;;;;;;;;;;;;;6158302;23;1169;-71
2021/04/13 18:49:01;;;;;;;;;;;;;;;;;;6156433;23;1101;-70
2021/04/13 18:51:30;;;;;;;;;;;;;;;;;;6159007;23;873;-70
2021/04/13 18:54:22;;;;;;;;;;;;;;;;;;6131556;23;1869;-67
2021/04/13 18:56:55;;;;;;;;;;;;;;;;;;6154463;23;1084;-71
2021/04/13 18:59:24;;;;;;;;;;;;;;;;;;6131981;23;1296;-69
2021/04/13 19:01:52;;;;;;;;;;;;;;;;;;6131090;23;1274;-69
2021/04/13 19:04:18;;;;;;;;;;;;;;;;;;6156755;23;866;-67
2021/04/13 19:06:47;;;;;;;;;;;;;;;;;;6158160;23;851;-68
2021/04/13 19:09:17;;;;;;;;;;;;;;;;;;6133345;23;1331;-68
2021/04/13 19:11:47;;;;;;;;;;;;;;;;;;6131923;23;1093;-68
2021/04/13 19:14:20;;;;;;;;;;;;;;;;;;6159628;23;1877;-68
2021/04/13 19:16:58;;;;;;;;;;;;;;;;;;6131897;23;1311;-70